Time;durP1;ratioP1;P1;durP2;ratioP2;P2;SDS_P1;SDS_P2;PMS_P1;PMS_P2;Temp;Humidity;BMP_temperature;BMP_pressure;BME280_temperature;BME280_humidity;BME280_pressure;Samples;Min_cycle;Max_cycle;Signal;HPM_P1;HPM_P2
2023/01/20 00:00:59;;;;;;;2.90;2.53;;;;;;;20.18;48.32;96028.75;10628874;27;20081;-46
2023/01/20 00:06:18;;;;;;;3.28;2.38;;;;;;;20.16;48.33;96031.03;10627594;27;20062;-48
2023/01/20 00:11:38;;;;;;;4.10;2.78;;;;;;;20.13;48.20;96034.41;10628578;27;20047;-46
2023/01/20 00:16:59;;;;;;;4.28;2.80;;;;;;;20.12;48.13;96043.66;10628321;27;20058;-47
2023/01/20 00:22:19;;;;;;;3.80;2.72;;;;;;;20.09;48.08;96060.56;10641669;27;20543;-47
2023/01/20 00:27:39;;;;;;;3.00;2.70;;;;;;;20.08;48.16;96075.25;10627775;27;20057;-48
2023/01/20 00:32:58;;;;;;;3.00;2.60;;;;;;;20.05;48.15;96062.41;10627032;27;20472;-46
2023/01/20 00:38:19;;;;;;;4.35;2.80;;;;;;;20.03;48.04;96070.88;10627341;27;20058;-46
2023/01/20 00:43:38;;;;;;;3.65;2.60;;;;;;;20.01;48.14;96078.50;10626228;27;20047;-49
2023/01/20 00:48:58;;;;;;;3.72;2.78;;;;;;;20.00;48.15;96084.28;10626958;27;20055;-48
2023/01/20 00:54:17;;;;;;;3.97;2.83;;;;;;;19.97;48.13;96088.44;10626601;27;20051;-49
2023/01/20 00:59:37;;;;;;;4.03;2.67;;;;;;;19.95;48.08;96088.00;10626287;27;20051;-46
2023/01/20 01:04:56;;;;;;;3.17;2.88;;;;;;;19.93;48.24;96091.06;10639868;27;20043;-47
2023/01/20 01:10:15;;;;;;;3.20;2.55;;;;;;;19.91;48.12;96090.59;10639611;27;20050;-46
2023/01/20 01:15:35;;;;;;;2.97;2.60;;;;;;;19.89;48.20;96090.16;10639352;27;20046;-47
2023/01/20 01:20:55;;;;;;;3.45;2.90;;;;;;;19.88;48.08;96091.31;10625437;27;20047;-46
2023/01/20 01:26:14;;;;;;;2.90;2.60;;;;;;;19.86;47.99;96096.28;10625345;27;20384;-45
2023/01/20 01:31:34;;;;;;;3.33;2.55;;;;;;;19.84;47.95;96092.34;10624425;27;20495;-46
2023/01/20 01:36:53;;;;;;;2.85;2.35;;;;;;;19.81;47.95;96091.09;10624863;27;20059;-46
2023/01/20 01:42:15;;;;;;;3.53;2.53;;;;;;;19.80;47.76;96094.13;10624612;27;20043;-46
2023/01/20 01:47:34;;;;;;;3.58;2.95;;;;;;;19.76;47.72;96102.16;10626629;27;20085;-46
2023/01/20 01:52:55;;;;;;;2.92;2.45;;;;;;;19.74;47.88;96093.59;10624402;27;20047;-46
2023/01/20 01:58:19;;;;;;;2.60;2.40;;;;;;;19.72;47.86;96109.38;10608170;27;20051;-49
2023/01/20 02:03:59;;;;;;;3.15;2.38;;;;;;;19.71;47.57;96113.16;10608592;27;20043;-48
2023/01/20 02:09:21;;;;;;;3.05;2.40;;;;;;;19.69;47.85;96115.44;10608278;27;20055;-46
2023/01/20 02:14:54;;;;;;;2.88;2.42;;;;;;;19.67;47.79;96123.09;10623844;27;20058;-46
2023/01/20 02:20:29;;;;;;;3.08;2.42;;;;;;;19.65;47.87;96128.81;10623756;27;20402;-45
2023/01/20 02:26:10;;;;;;;3.08;2.40;;;;;;;19.62;47.83;96121.41;10623550;28;20051;-45
2023/01/20 02:31:48;;;;;;;3.47;2.50;;;;;;;19.61;47.87;96129.84;10629930;27;20074;-46
2023/01/20 02:37:17;;;;;;;2.58;2.38;;;;;;;19.59;47.47;96132.13;10645926;27;20052;-45
2023/01/20 02:42:41;;;;;;;3.33;2.80;;;;;;;19.54;47.91;96133.94;10632050;27;20403;-46
2023/01/20 02:48:25;;;;;;;3.00;2.70;;;;;;;19.53;47.79;96129.63;10615619;27;20514;-48
2023/01/20 02:54:06;;;;;;;2.45;2.17;;;;;;;19.51;47.64;96137.28;10631457;27;20049;-45
2023/01/20 02:59:29;;;;;;;3.22;2.70;;;;;;;19.49;47.75;96134.16;10631367;27;20051;-47
2023/01/20 03:05:05;;;;;;;3.10;2.17;;;;;;;19.47;47.79;96131.00;10631143;27;20051;-45
2023/01/20 03:10:26;;;;;;;2.50;2.30;;;;;;;19.45;47.75;96138.66;10615390;27;20047;-46
2023/01/20 03:15:56;;;;;;;3.38;2.30;;;;;;;19.43;47.71;96132.81;10628872;27;20035;-46
2023/01/20 03:21:16;;;;;;;2.80;2.50;;;;;;;19.41;47.68;96142.38;10615006;27;20384;-45
2023/01/20 03:26:37;;;;;;;2.78;2.38;;;;;;;19.40;47.85;96157.78;10629593;27;20491;-46
2023/01/20 03:31:58;;;;;;;3.25;2.30;;;;;;;19.38;47.68;96170.84;10630086;27;20043;-45
2023/01/20 03:37:18;;;;;;;2.95;2.47;;;;;;;19.36;47.71;96183.88;10643474;27;20046;-45
2023/01/20 03:42:52;;;;;;;2.45;2.20;;;;;;;19.33;47.77;96179.97;10642969;27;20468;-45
2023/01/20 03:48:20;;;;;;;2.60;2.10;;;;;;;19.32;47.66;96183.00;10628683;27;20054;-47
2023/01/20 03:53:47;;;;;;;2.63;2.42;;;;;;;19.30;47.70;96190.66;10629217;27;20081;-46
2023/01/20 03:59:22;;;;;;;2.65;2.45;;;;;;;19.28;47.77;96187.50;10593024;27;20058;-45
2023/01/20 04:04:43;;;;;;;2.83;2.40;;;;;;;19.24;47.64;96192.78;10612700;27;20058;-46
2023/01/20 04:10:07;;;;;;;2.50;2.30;;;;;;;19.23;47.84;96195.81;10628128;27;20043;-48
2023/01/20 04:15:27;;;;;;;2.47;2.28;;;;;;;19.21;47.81;96189.97;10612740;27;20062;-48
2023/01/20 04:20:59;;;;;;;3.22;2.28;;;;;;;19.20;47.72;96191.88;10612548;27;20051;-45
2023/01/20 04:26:19;;;;;;;2.92;2.30;;;;;;;19.19;47.70;96205.72;10627192;27;20051;-45
2023/01/20 04:31:38;;;;;;;3.13;2.33;;;;;;;19.17;47.57;96214.16;10627532;27;20043;-47
2023/01/20 04:36:58;;;;;;;2.30;2.10;;;;;;;19.13;47.73;96208.63;10627337;27;20059;-46
2023/01/20 04:42:17;;;;;;;2.30;2.00;;;;;;;19.12;47.68;96217.84;10627082;27;20050;-49
2023/01/20 04:47:37;;;;;;;2.30;2.10;;;;;;;19.09;47.63;96215.03;10626254;27;20063;-45
2023/01/20 04:52:56;;;;;;;2.60;2.40;;;;;;;19.07;47.70;96218.09;10626143;27;20047;-48
2023/01/20 04:58:16;;;;;;;2.60;2.40;;;;;;;19.07;47.56;96219.97;10640326;27;20414;-47
2023/01/20 05:03:35;;;;;;;2.20;2.00;;;;;;;19.03;47.59;96227.94;10626165;27;20429;-46
2023/01/20 05:08:55;;;;;;;2.53;2.22;;;;;;;19.03;47.51;96230.66;10610590;27;20047;-45
2023/01/20 05:14:14;;;;;;;3.63;2.80;;;;;;;19.02;47.76;96233.72;10625734;27;20043;-46
2023/01/20 05:19:34;;;;;;;2.40;2.20;;;;;;;18.99;48.05;96232.44;10624556;27;20051;-45
2023/01/20 05:24:53;;;;;;;3.15;2.67;;;;;;;19.00;47.31;96252.16;10625223;27;20051;-46
2023/01/20 05:30:13;;;;;;;2.92;2.60;;;;;;;18.96;47.81;96244.72;10624979;27;20051;-46
2023/01/20 05:35:33;;;;;;;2.60;2.40;;;;;;;18.95;47.70;96247.72;10624667;27;20055;-46
2023/01/20 05:40:59;;;;;;;4.35;2.58;;;;;;;18.94;47.94;96243.47;10638432;27;20039;-46
2023/01/20 05:46:19;;;;;;;2.60;2.38;;;;;;;18.93;47.88;96250.78;10624135;27;20132;-46
2023/01/20 05:51:38;;;;;;;4.78;2.72;;;;;;;18.93;48.07;96253.47;10624317;27;20043;-45
2023/01/20 05:56:58;;;;;;;3.08;2.72;;;;;;;18.94;47.94;96259.66;10624268;27;20055;-45
2023/01/20 06:02:18;;;;;;;3.22;2.60;;;;;;;18.95;47.82;96261.22;10637436;27;20652;-45
2023/01/20 06:07:38;;;;;;;3.78;2.53;;;;;;;18.95;47.86;96266.63;10622801;27;20059;-46
2023/01/20 06:12:57;;;;;;;5.60;3.13;;;;;;;18.96;47.70;96260.13;10623823;27;20047;-47
2023/01/20 06:18:18;;;;;;;12.38;4.45;;;;;;;18.96;47.93;96265.50;10623049;27;20495;-45
2023/01/20 06:23:38;;;;;;;12.55;5.03;;;;;;;18.98;47.94;96268.66;10623589;28;20043;-45
2023/01/20 06:28:59;;;;;;;11.63;4.75;;;;;;;19.00;48.08;96279.16;10623551;28;20074;-47
2023/01/20 06:34:19;;;;;;;12.55;4.95;;;;;;;19.01;48.05;96278.00;10637061;27;20039;-47
2023/01/20 06:39:39;;;;;;;13.48;5.38;;;;;;;19.02;48.23;96293.88;10623299;28;20054;-47
2023/01/20 06:44:58;;;;;;;12.23;4.88;;;;;;;19.04;48.14;96301.66;10633368;27;20518;-46
2023/01/20 06:50:18;;;;;;;11.75;5.00;;;;;;;19.05;48.39;96301.31;10623136;28;20043;-45
2023/01/20 06:55:37;;;;;;;13.52;5.20;;;;;;;19.08;48.29;96316.84;10622478;28;20047;-45
2023/01/20 07:01:03;;;;;;;14.05;5.32;;;;;;;19.10;48.27;96327.31;10622806;28;20058;-46
2023/01/20 07:06:49;;;;;;;10.40;4.63;;;;;;;19.11;48.34;96328.88;10622790;28;20047;-45
2023/01/20 07:12:09;;;;;;;14.65;5.05;;;;;;;19.12;48.51;96325.84;10622074;28;20047;-45
2023/01/20 07:17:28;;;;;;;10.65;4.57;;;;;;;19.14;48.15;96341.72;10628267;27;20059;-45
2023/01/20 07:22:47;;;;;;;10.20;4.57;;;;;;;19.19;48.29;96346.13;10629054;27;20051;-46
2023/01/20 07:28:07;;;;;;;11.20;4.80;;;;;;;19.21;48.33;96365.47;10629564;27;20051;-46
2023/01/20 07:33:27;;;;;;;8.95;4.30;;;;;;;19.23;48.47;96374.84;10630080;27;20048;-44
2023/01/20 07:38:50;;;;;;;9.93;4.40;;;;;;;19.25;48.45;96380.69;10629838;27;20058;-45
2023/01/20 07:44:10;;;;;;;11.18;4.68;;;;;;;19.27;48.54;96391.97;10629251;27;20047;-46
2023/01/20 07:49:29;;;;;;;14.90;5.55;;;;;;;19.29;48.40;96397.81;10629394;27;20059;-47
2023/01/20 07:54:48;;;;;;;8.00;4.40;;;;;;;19.31;48.40;96398.28;10629076;27;20054;-46
2023/01/20 08:00:08;;;;;;;11.80;4.78;;;;;;;19.35;48.48;96409.22;10628922;27;20054;-45
2023/01/20 08:05:28;;;;;;;8.38;4.13;;;;;;;19.36;48.40;96408.84;10642323;27;20043;-46
2023/01/20 08:10:52;;;;;;;8.20;4.82;;;;;;;19.39;48.42;96415.53;10626796;27;20525;-46
2023/01/20 08:16:14;;;;;;;11.48;4.70;;;;;;;19.42;48.40;96414.84;10627605;27;20055;-45
2023/01/20 08:21:33;;;;;;;8.25;4.30;;;;;;;19.44;48.33;96423.41;10627946;27;20054;-47
2023/01/20 08:26:53;;;;;;;10.18;4.47;;;;;;;19.47;48.28;96427.38;10626688;27;20055;-45
2023/01/20 08:32:12;;;;;;;8.30;4.60;;;;;;;19.50;48.29;96432.91;10627589;27;20410;-46
2023/01/20 08:37:35;;;;;;;6.75;4.45;;;;;;;19.51;48.50;96434.47;10627548;27;20051;-45
2023/01/20 08:42:54;;;;;;;6.47;4.03;;;;;;;19.53;48.18;96440.34;10627058;27;20111;-47
2023/01/20 08:48:13;;;;;;;7.53;4.25;;;;;;;19.56;48.42;96433.47;10626220;27;20059;-47
2023/01/20 08:53:33;;;;;;;7.50;4.32;;;;;;;19.58;48.21;96428.50;10626135;27;20503;-45
2023/01/20 08:58:52;;;;;;;7.90;4.25;;;;;;;19.60;48.27;96431.69;10626468;27;20403;-45
2023/01/20 09:04:12;;;;;;;6.82;4.07;;;;;;;19.62;48.20;96436.75;10625550;27;20553;-46
2023/01/20 09:09:31;;;;;;;7.30;4.20;;;;;;;19.64;47.93;96438.03;10626054;27;20051;-45
2023/01/20 09:14:50;;;;;;;7.28;4.18;;;;;;;19.66;48.04;96441.19;10625784;27;20067;-44
2023/01/20 09:20:10;;;;;;;5.22;3.58;;;;;;;19.69;47.69;96439.72;10639262;27;20407;-45
2023/01/20 09:25:30;;;;;;;6.05;3.65;;;;;;;19.71;47.50;96445.56;10625513;27;20070;-45
2023/01/20 09:30:49;;;;;;;5.13;3.33;;;;;;;19.71;47.46;96449.09;10625000;27;20055;-45
2023/01/20 09:36:10;;;;;;;15.18;10.38;;;;;;;19.68;40.11;96459.75;10624739;27;20059;-47
2023/01/20 09:47:34;;;;;;;7.93;5.63;;;;;;;19.70;44.46;96471.03;10624037;27;20066;-45
2023/01/20 09:53:19;;;;;;;8.82;5.90;;;;;;;19.74;44.29;96475.47;10624571;27;20112;-46
2023/01/20 09:58:51;;;;;;;9.48;7.03;;;;;;;19.73;40.78;96473.88;10623169;27;20065;-48
2023/01/20 10:04:24;;;;;;;7.82;5.68;;;;;;;19.75;43.35;96484.34;10624146;27;20081;-46
2023/01/20 10:09:51;;;;;;;31.77;22.77;;;;;;;19.78;43.87;96486.41;10637646;27;20069;-45
2023/01/20 10:15:27;;;;;;;19.00;14.07;;;;;;;19.82;44.07;96484.59;10623769;27;20078;-45
2023/01/20 10:20:49;;;;;;;17.02;11.57;;;;;;;19.84;44.34;96474.25;10608272;28;20047;-46
2023/01/20 10:26:31;;;;;;;16.70;11.35;;;;;;;19.87;44.52;96481.69;10623588;28;20460;-47
2023/01/20 10:32:04;;;;;;;14.63;9.63;;;;;;;19.90;44.50;96493.75;10608078;28;20056;-47
2023/01/20 10:37:24;;;;;;;12.80;9.40;;;;;;;19.91;44.84;96493.41;10622886;28;20120;-47
2023/01/20 10:42:48;;;;;;;14.63;9.65;;;;;;;19.93;44.72;96496.59;10622971;28;20399;-45
2023/01/20 10:48:20;;;;;;;20.33;9.50;;;;;;;19.95;44.84;96493.53;10580813;28;20104;-47
2023/01/20 10:54:29;;;;;;;20.00;11.70;;;;;;;19.98;45.38;96498.28;10602091;28;20051;-49
2023/01/20 10:59:52;;;;;;;15.85;10.30;;;;;;;20.01;45.60;96504.94;10571030;28;20051;-45
2023/01/20 11:05:19;;;;;;;12.73;9.20;;;;;;;20.03;46.00;96508.09;10588722;28;20044;-47
2023/01/20 11:10:40;;;;;;;12.85;8.77;;;;;;;20.06;46.25;96504.72;10588520;28;20097;-45
2023/01/20 11:16:03;;;;;;;12.68;9.00;;;;;;;20.07;46.54;96509.81;10588294;28;20063;-46
2023/01/20 11:21:25;;;;;;;11.60;8.07;;;;;;;20.10;47.26;96519.16;10587023;28;20055;-46
2023/01/20 11:26:44;;;;;;;10.20;6.95;;;;;;;20.11;47.85;96516.13;10587658;28;20052;-44
2023/01/20 11:32:06;;;;;;;9.38;6.43;;;;;;;20.13;47.46;96513.06;10587678;28;20048;-48
2023/01/20 11:37:35;;;;;;;7.70;5.88;;;;;;;20.15;47.28;96510.84;10586834;28;20456;-45
2023/01/20 11:42:55;;;;;;;9.38;5.90;;;;;;;20.16;47.42;96512.41;10587018;28;20445;-46
2023/01/20 11:48:16;;;;;;;8.60;5.88;;;;;;;20.20;47.30;96524.13;10623866;27;20059;-45
2023/01/20 11:53:35;;;;;;;9.00;5.97;;;;;;;20.20;46.97;96534.94;10629532;27;20055;-45
2023/01/20 11:58:58;;;;;;;8.07;5.65;;;;;;;20.22;46.93;96534.63;10629068;27;20055;-45
2023/01/20 12:04:45;;;;;;;7.93;5.18;;;;;;;20.25;46.87;96539.38;10612196;27;20051;-44
2023/01/20 12:10:13;;;;;;;9.15;5.57;;;;;;;20.25;46.97;96531.25;10628799;27;20059;-46
2023/01/20 12:15:36;;;;;;;7.13;5.03;;;;;;;20.27;46.99;96534.41;10642013;27;20034;-46
2023/01/20 12:21:19;;;;;;;7.05;5.35;;;;;;;20.28;47.01;96541.41;10612517;27;20047;-45
2023/01/20 12:26:38;;;;;;;7.70;5.18;;;;;;;20.29;46.78;96538.34;10627362;27;20055;-45
2023/01/20 12:31:59;;;;;;;9.40;4.72;;;;;;;20.30;46.71;96545.34;10640844;27;20054;-46
2023/01/20 12:37:26;;;;;;;6.28;4.75;;;;;;;20.33;46.53;96541.97;10627484;27;20055;-46
2023/01/20 12:43:05;;;;;;;5.70;4.15;;;;;;;20.35;46.55;96541.66;10626734;27;20051;-46
2023/01/20 12:48:43;;;;;;;6.25;4.75;;;;;;;20.35;46.51;96539.72;10611072;27;20423;-46
2023/01/20 12:54:35;;;;;;;6.57;4.60;;;;;;;20.38;46.42;96551.00;10611508;27;20051;-47
2023/01/20 13:00:16;;;;;;;6.22;4.50;;;;;;;20.39;46.24;96547.19;10611147;27;20448;-45
2023/01/20 13:05:59;;;;;;;6.97;4.72;;;;;;;20.39;46.23;96542.56;10625743;27;20510;-45
2023/01/20 13:11:43;;;;;;;5.38;4.05;;;;;;;20.40;46.32;96543.34;10639952;27;20043;-45
2023/01/20 13:17:10;;;;;;;5.97;4.53;;;;;;;20.41;46.34;96548.41;10625865;27;20059;-46
2023/01/20 13:22:29;;;;;;;8.93;4.30;;;;;;;20.43;46.08;96553.50;10610125;27;20047;-45
2023/01/20 13:27:50;;;;;;;7.05;4.60;;;;;;;20.43;46.12;96561.63;10625229;27;20058;-48
2023/01/20 13:33:16;;;;;;;6.55;4.05;;;;;;;20.43;45.94;96564.31;10624518;27;20534;-47
2023/01/20 13:38:38;;;;;;;5.57;4.35;;;;;;;20.46;46.09;96577.94;10624937;27;20047;-44
2023/01/20 13:43:57;;;;;;;8.30;4.78;;;;;;;20.45;45.91;96584.50;10637736;27;20478;-46
2023/01/20 13:49:23;;;;;;;6.60;4.63;;;;;;;20.47;46.01;96582.25;10624604;27;20055;-45
2023/01/20 13:54:45;;;;;;;6.90;4.47;;;;;;;20.47;46.04;96586.88;10623820;27;20066;-44
2023/01/20 14:00:11;;;;;;;7.78;4.50;;;;;;;20.48;46.10;96593.84;10624081;27;20414;-47
2023/01/20 14:05:31;;;;;;;7.72;4.47;;;;;;;20.48;46.03;96594.66;10637728;27;20494;-46
2023/01/20 14:11:02;;;;;;;8.20;4.90;;;;;;;20.47;45.97;96590.38;10623385;27;20047;-45
2023/01/20 14:16:35;;;;;;;9.65;5.05;;;;;;;20.47;46.01;96586.88;10623847;27;20051;-47
2023/01/20 14:21:57;;;;;;;7.88;5.00;;;;;;;20.45;46.28;96595.31;10637393;27;20463;-46
2023/01/20 14:27:23;;;;;;;10.05;5.28;;;;;;;20.43;46.10;96600.28;10622142;27;20059;-46
2023/01/20 14:32:43;;;;;;;7.03;4.38;;;;;;;20.45;46.01;96603.44;10623389;28;20448;-43
2023/01/20 14:38:03;;;;;;;8.98;4.63;;;;;;;20.44;45.93;96604.53;10623278;28;20055;-46
2023/01/20 14:43:22;;;;;;;6.18;4.35;;;;;;;20.43;45.97;96613.81;10623179;28;20409;-48
2023/01/20 14:48:42;;;;;;;10.60;5.00;;;;;;;20.43;46.10;96613.03;10607231;28;20063;-45
2023/01/20 14:54:26;;;;;;;7.30;4.53;;;;;;;20.42;46.01;96614.91;10623519;28;20051;-45
2023/01/20 14:59:57;;;;;;;8.15;4.15;;;;;;;20.43;46.52;96631.97;10623132;28;20055;-45
2023/01/20 15:05:29;;;;;;;7.15;4.43;;;;;;;20.43;46.42;96640.88;10606857;28;20047;-45
2023/01/20 15:11:30;;;;;;;7.28;4.55;;;;;;;20.44;46.44;96653.25;10636560;27;20039;-45
2023/01/20 15:16:50;;;;;;;6.75;4.20;;;;;;;20.44;46.38;96653.25;10636391;27;20212;-46
2023/01/20 15:22:17;;;;;;;6.10;3.92;;;;;;;20.45;46.53;96667.59;10622673;28;20119;-45
2023/01/20 15:27:37;;;;;;;6.10;4.13;;;;;;;20.47;46.51;96673.47;10621450;28;20055;-54
2023/01/20 15:32:56;;;;;;;6.30;3.90;;;;;;;20.48;46.91;96680.44;10621894;28;20043;-42
2023/01/20 15:38:16;;;;;;;7.47;4.22;;;;;;;20.49;47.58;96690.16;10626602;27;20495;-44
2023/01/20 15:43:35;;;;;;;5.55;3.65;;;;;;;20.52;47.50;96693.00;10603996;27;20059;-45
2023/01/20 15:48:54;;;;;;;6.68;3.95;;;;;;;20.54;47.68;96695.34;10603912;27;20407;-44
2023/01/20 15:54:14;;;;;;;7.28;3.75;;;;;;;20.53;47.44;96699.19;10586441;28;20047;-44
2023/01/20 15:59:33;;;;;;;5.57;3.80;;;;;;;20.53;47.72;96702.69;10586285;28;20055;-47
2023/01/20 16:04:52;;;;;;;6.85;3.70;;;;;;;20.55;47.59;96715.88;10585207;28;20056;-46
2023/01/20 16:10:14;;;;;;;6.85;3.60;;;;;;;20.55;47.48;96719.38;10585367;28;20055;-45
2023/01/20 16:15:35;;;;;;;5.20;3.65;;;;;;;20.55;47.51;96716.66;10616314;27;20057;-45
2023/01/20 16:20:55;;;;;;;5.88;3.90;;;;;;;20.57;47.28;96718.25;10641253;27;20068;-45
2023/01/20 16:26:18;;;;;;;5.25;3.25;;;;;;;20.58;47.19;96711.72;10627440;27;20051;-47
2023/01/20 16:31:38;;;;;;;5.43;3.42;;;;;;;20.58;47.21;96714.41;10600429;27;20128;-51
2023/01/20 16:36:57;;;;;;;7.03;3.63;;;;;;;20.59;46.99;96718.72;10585182;28;20051;-45
2023/01/20 16:42:17;;;;;;;6.95;3.35;;;;;;;20.59;47.06;96719.53;10608735;27;20047;-46
2023/01/20 16:47:37;;;;;;;103.35;62.75;;;;;;;20.61;47.17;96728.13;10628857;27;20055;-46
2023/01/20 16:52:56;;;;;;;64.85;39.45;;;;;;;20.60;47.11;96737.38;10611375;27;20043;-45
2023/01/20 16:58:16;;;;;;;48.78;31.58;;;;;;;20.61;47.41;96738.94;10597416;27;20062;-44
2023/01/20 17:03:40;;;;;;;45.42;26.85;;;;;;;-146.19;100.00;65364.44;10602776;27;20043;-52
2023/01/20 17:09:02;;;;;;;43.75;26.33;;;;;;;-146.19;100.00;65364.44;10602387;27;20627;-51
2023/01/20 17:14:21;;;;;;;37.75;23.08;;;;;;;20.64;47.86;96743.69;10604204;27;20074;-48
2023/01/20 17:19:41;;;;;;;35.03;21.42;;;;;;;20.63;47.76;96750.22;10602157;27;20066;-57
2023/01/20 17:25:00;;;;;;;32.88;20.33;;;;;;;20.63;47.80;96761.06;10616989;27;20047;-58
2023/01/20 17:30:20;;;;;;;33.90;20.23;;;;;;;20.62;47.95;96758.66;10625459;27;20078;-58
2023/01/20 17:35:40;;;;;;;32.40;18.88;;;;;;;20.62;47.86;96772.19;10620394;27;20054;-49
2023/01/20 17:41:01;;;;;;;30.05;17.95;;;;;;;20.60;47.96;96777.16;10603375;27;20059;-56
2023/01/20 17:46:30;;;;;;;27.02;17.25;;;;;;;20.60;47.84;96780.69;10601507;27;20063;-56
2023/01/20 17:51:50;;;;;;;20.58;13.85;;;;;;;20.60;48.44;96787.97;10602557;27;20047;-56
2023/01/20 17:57:09;;;;;;;26.48;15.07;;;;;;;20.60;48.44;96787.97;10616409;27;20036;-56
2023/01/20 18:02:28;;;;;;;24.85;14.75;;;;;;;20.58;48.10;96799.13;10602509;27;20119;-56
2023/01/20 18:07:48;;;;;;;21.98;13.70;;;;;;;-146.19;100.00;65364.44;10613859;27;20055;-45
2023/01/20 18:13:08;;;;;;;21.88;14.02;;;;;;;-146.19;100.00;65364.44;10637777;27;20040;-46
2023/01/20 18:18:27;;;;;;;20.92;12.88;;;;;;;-146.19;100.00;65364.44;10623442;27;20494;-51
2023/01/20 18:23:48;;;;;;;20.10;12.68;;;;;;;-146.19;100.00;65364.44;10623772;27;20051;-51
2023/01/20 18:29:13;;;;;;;18.35;12.20;;;;;;;-146.19;100.00;65364.44;10623922;28;20047;-50
2023/01/20 18:34:33;;;;;;;20.27;11.65;;;;;;;-146.19;100.00;65364.44;10605253;27;20406;-52
2023/01/20 18:39:53;;;;;;;18.95;11.63;;;;;;;-146.19;100.00;65364.44;10580973;28;20055;-50
2023/01/20 18:45:12;;;;;;;17.90;10.55;;;;;;;-146.19;100.00;65364.44;10590554;28;20047;-54
2023/01/20 18:50:32;;;;;;;16.33;10.60;;;;;;;-146.19;100.00;65364.44;10580257;28;20104;-50
2023/01/20 18:55:51;;;;;;;14.57;9.77;;;;;;;-146.19;100.00;65364.44;10597951;28;20051;-53
2023/01/20 19:01:13;;;;;;;16.90;9.80;;;;;;;-146.19;100.00;65364.44;10601313;28;20054;-50
2023/01/20 19:06:40;;;;;;;16.33;9.45;;;;;;;-146.19;100.00;65364.44;10614218;27;20036;-53
2023/01/20 19:11:59;;;;;;;12.93;8.55;;;;;;;-146.19;100.00;65364.44;10602216;27;20054;-49
2023/01/20 19:17:19;;;;;;;13.18;8.85;;;;;;;-146.19;100.00;65364.44;10600732;27;20093;-52
2023/01/20 19:22:38;;;;;;;11.88;8.15;;;;;;;-146.19;100.00;65364.44;10622127;27;20034;-53
2023/01/20 19:28:04;;;;;;;13.05;8.20;;;;;;;-146.19;100.00;65364.44;10603480;27;20056;-50
2023/01/20 19:33:23;;;;;;;10.82;7.75;;;;;;;-146.19;100.00;65364.44;10601253;27;20042;-51
2023/01/20 19:38:44;;;;;;;11.52;7.75;;;;;;;-146.19;100.00;65364.44;10606851;27;20047;-55
2023/01/20 19:44:05;;;;;;;10.93;7.57;;;;;;;-146.19;100.00;65364.44;10627191;27;20403;-50
2023/01/20 19:49:25;;;;;;;10.25;6.65;;;;;;;-146.19;100.00;65364.44;10622593;27;20046;-50
2023/01/20 19:54:44;;;;;;;9.57;6.70;;;;;;;-146.19;100.00;65364.44;10619731;27;20398;-53
2023/01/20 20:00:05;;;;;;;10.07;7.18;;;;;;;-146.19;100.00;65364.44;10622190;27;20479;-53
2023/01/20 20:05:36;;;;;;;9.73;6.95;;;;;;;-146.19;100.00;65364.44;10642662;27;20043;-53
2023/01/20 20:10:56;;;;;;;10.70;7.15;;;;;;;-146.19;100.00;65364.44;10642650;27;20051;-57
2023/01/20 20:16:15;;;;;;;11.98;6.90;;;;;;;-146.19;100.00;65364.44;10628665;27;20387;-54
2023/01/20 20:21:35;;;;;;;9.25;6.45;;;;;;;-146.19;100.00;65364.44;10606071;27;20048;-53
2023/01/20 20:26:56;;;;;;;7.82;5.78;;;;;;;-146.19;100.00;65364.44;10604394;27;20043;-53
2023/01/20 20:32:16;;;;;;;9.63;6.18;;;;;;;-146.19;100.00;65364.44;10589378;27;20051;-52
2023/01/20 20:37:36;;;;;;;8.40;5.53;;;;;;;-146.19;100.00;65364.44;10604192;27;20056;-52
2023/01/20 20:42:56;;;;;;;7.60;5.53;;;;;;;-146.19;100.00;65364.44;10604940;27;20044;-53
2023/01/20 20:48:17;;;;;;;7.75;5.57;;;;;;;-146.19;100.00;65364.44;10592063;27;20063;-48
2023/01/20 20:53:37;;;;;;;7.95;5.32;;;;;;;-146.19;100.00;65364.44;10597350;27;20445;-51
2023/01/20 20:58:59;;;;;;;7.07;5.63;;;;;;;-146.19;100.00;65364.44;10596841;27;20051;-46
2023/01/20 21:04:18;;;;;;;7.15;5.18;;;;;;;-146.19;100.00;65364.44;10583506;28;20047;-45
2023/01/20 21:09:38;;;;;;;7.03;5.60;;;;;;;-146.19;100.00;65364.44;10603302;27;20047;-46
2023/01/20 21:14:57;;;;;;;8.40;5.07;;;;;;;-146.19;100.00;65364.44;10605123;27;20044;-45
2023/01/20 21:20:17;;;;;;;6.50;5.25;;;;;;;-146.19;100.00;65364.44;10602868;27;20485;-45
2023/01/20 21:25:36;;;;;;;8.00;5.57;;;;;;;-146.19;100.00;65364.44;10601635;27;20040;-45
2023/01/20 21:30:56;;;;;;;8.18;5.13;;;;;;;-146.19;100.00;65364.44;10583266;28;20051;-44
2023/01/20 21:36:15;;;;;;;7.97;5.03;;;;;;;-146.19;100.00;65364.44;10582722;28;20059;-44
2023/01/20 21:41:35;;;;;;;7.38;4.80;;;;;;;-146.19;100.00;65364.44;10582755;28;20048;-45
2023/01/20 21:46:56;;;;;;;7.40;5.03;;;;;;;-146.19;100.00;65364.44;10587298;28;20051;-44
2023/01/20 21:57:56;;;;;;;7.13;4.68;;;;;;;-146.19;100.00;65364.44;10582311;28;20101;-45
2023/01/20 22:03:15;;;;;;;6.88;4.97;;;;;;;-146.19;100.00;65364.44;10581858;28;20048;-45
2023/01/20 22:08:35;;;;;;;6.30;4.75;;;;;;;-146.19;100.00;65364.44;10595504;28;20403;-45
2023/01/20 22:13:55;;;;;;;5.68;4.35;;;;;;;-146.19;100.00;65364.44;10580878;28;20522;-44
2023/01/20 22:19:14;;;;;;;7.05;4.68;;;;;;;-146.19;100.00;65364.44;10580961;28;20096;-46
2023/01/20 22:24:34;;;;;;;6.63;4.28;;;;;;;-146.19;100.00;65364.44;10581437;28;20047;-46
2023/01/20 22:29:53;;;;;;;5.07;3.97;;;;;;;-146.19;100.00;65364.44;10577770;28;20090;-44
2023/01/20 22:35:12;;;;;;;5.63;4.47;;;;;;;-146.19;100.00;65364.44;10590911;28;20047;-44
2023/01/20 22:40:32;;;;;;;6.53;4.30;;;;;;;-146.19;100.00;65364.44;10577033;28;20054;-45
2023/01/20 22:45:59;;;;;;;6.47;4.70;;;;;;;-146.19;100.00;65364.44;10577897;28;20438;-45
2023/01/20 22:51:21;;;;;;;5.22;3.88;;;;;;;-146.19;100.00;65364.44;10585855;28;20055;-44
2023/01/20 22:56:40;;;;;;;7.13;4.32;;;;;;;-146.19;100.00;65364.44;10598977;28;20046;-45
2023/01/20 23:02:01;;;;;;;5.03;4.00;;;;;;;-146.19;100.00;65364.44;10584543;28;20056;-45
2023/01/20 23:07:20;;;;;;;5.72;4.00;;;;;;;-146.19;100.00;65364.44;10584917;28;20056;-44
2023/01/20 23:12:39;;;;;;;5.32;3.63;;;;;;;-146.19;100.00;65364.44;10584770;28;20063;-44
2023/01/20 23:17:59;;;;;;;5.85;4.05;;;;;;;-146.19;100.00;65364.44;10584085;28;20869;-44
2023/01/20 23:23:19;;;;;;;4.60;3.90;;;;;;;-146.19;100.00;65364.44;10584183;28;20044;-44
2023/01/20 23:28:40;;;;;;;4.50;3.60;;;;;;;-146.19;100.00;65364.44;10584117;28;20124;-44
2023/01/20 23:34:00;;;;;;;5.10;3.70;;;;;;;-146.19;100.00;65364.44;10583862;28;20058;-44
2023/01/20 23:39:19;;;;;;;5.47;4.25;;;;;;;-146.19;100.00;65364.44;10583711;28;20056;-44
2023/01/20 23:44:39;;;;;;;5.07;3.75;;;;;;;-146.19;100.00;65364.44;10582846;28;20059;-44
2023/01/20 23:49:58;;;;;;;4.88;3.20;;;;;;;-146.19;100.00;65364.44;10584313;28;20417;-45
2023/01/20 23:55:17;;;;;;;4.80;3.40;;;;;;;-146.19;100.00;65364.44;10587306;28;20403;-44
